sensor_id;sensor_type;location;lat;lon;timestamp;P1;durP1;ratioP1;P2;durP2;ratioP2
28627;SDS011;15815;46.760;19.604;2024-02-23T00:01:53;7.38;;;3.90;;
28627;SDS011;15815;46.760;19.604;2024-02-23T00:06:48;5.93;;;3.58;;
28627;SDS011;15815;46.760;19.604;2024-02-23T00:09:13;7.20;;;3.25;;
28627;SDS011;15815;46.760;19.604;2024-02-23T00:11:39;6.57;;;2.92;;
28627;SDS011;15815;46.760;19.604;2024-02-23T00:14:05;5.22;;;2.88;;
28627;SDS011;15815;46.760;19.604;2024-02-23T00:16:31;6.63;;;3.30;;
28627;SDS011;15815;46.760;19.604;2024-02-23T00:18:56;5.07;;;3.50;;
28627;SDS011;15815;46.760;19.604;2024-02-23T00:21:22;5.55;;;2.58;;
28627;SDS011;15815;46.760;19.604;2024-02-23T00:26:26;6.20;;;3.20;;
28627;SDS011;15815;46.760;19.604;2024-02-23T00:28:51;5.93;;;2.70;;
28627;SDS011;15815;46.760;19.604;2024-02-23T00:31:16;6.40;;;3.13;;
28627;SDS011;15815;46.760;19.604;2024-02-23T00:33:55;5.47;;;3.30;;
28627;SDS011;15815;46.760;19.604;2024-02-23T00:36:21;8.45;;;3.10;;
28627;SDS011;15815;46.760;19.604;2024-02-23T00:38:47;5.10;;;2.95;;
28627;SDS011;15815;46.760;19.604;2024-02-23T00:41:12;8.98;;;3.25;;
28627;SDS011;15815;46.760;19.604;2024-02-23T00:43:38;12.10;;;3.40;;
28627;SDS011;15815;46.760;19.604;2024-02-23T00:46:04;7.47;;;2.72;;
28627;SDS011;15815;46.760;19.604;2024-02-23T00:48:30;5.32;;;3.38;;
28627;SDS011;15815;46.760;19.604;2024-02-23T00:50:55;5.07;;;2.65;;
28627;SDS011;15815;46.760;19.604;2024-02-23T00:53:21;5.00;;;3.00;;
28627;SDS011;15815;46.760;19.604;2024-02-23T00:55:46;7.55;;;2.78;;
28627;SDS011;15815;46.760;19.604;2024-02-23T00:58:13;7.30;;;3.22;;
28627;SDS011;15815;46.760;19.604;2024-02-23T01:00:39;3.70;;;2.22;;
28627;SDS011;15815;46.760;19.604;2024-02-23T01:03:05;5.53;;;1.80;;
28627;SDS011;15815;46.760;19.604;2024-02-23T01:05:31;4.40;;;2.60;;
28627;SDS011;15815;46.760;19.604;2024-02-23T01:07:56;4.40;;;2.30;;
28627;SDS011;15815;46.760;19.604;2024-02-23T01:10:22;4.47;;;2.10;;
28627;SDS011;15815;46.760;19.604;2024-02-23T01:13:05;5.65;;;2.83;;
28627;SDS011;15815;46.760;19.604;2024-02-23T01:15:31;5.57;;;2.45;;
28627;SDS011;15815;46.760;19.604;2024-02-23T01:17:56;4.30;;;2.50;;
28627;SDS011;15815;46.760;19.604;2024-02-23T01:23:16;4.63;;;2.60;;
28627;SDS011;15815;46.760;19.604;2024-02-23T01:25:42;3.88;;;2.70;;
28627;SDS011;15815;46.760;19.604;2024-02-23T01:28:23;4.18;;;2.30;;
28627;SDS011;15815;46.760;19.604;2024-02-23T01:30:48;4.37;;;2.30;;
28627;SDS011;15815;46.760;19.604;2024-02-23T01:33:14;3.78;;;2.10;;
28627;SDS011;15815;46.760;19.604;2024-02-23T01:35:46;8.18;;;2.08;;
28627;SDS011;15815;46.760;19.604;2024-02-23T01:38:12;3.53;;;2.05;;
28627;SDS011;15815;46.760;19.604;2024-02-23T01:43:06;2.53;;;1.90;;
28627;SDS011;15815;46.760;19.604;2024-02-23T01:45:33;2.63;;;1.92;;
28627;SDS011;15815;46.760;19.604;2024-02-23T01:47:58;4.57;;;2.78;;
28627;SDS011;15815;46.760;19.604;2024-02-23T01:50:26;4.90;;;2.58;;
28627;SDS011;15815;46.760;19.604;2024-02-23T01:52:52;4.15;;;2.25;;
28627;SDS011;15815;46.760;19.604;2024-02-23T01:55:21;3.63;;;2.15;;
28627;SDS011;15815;46.760;19.604;2024-02-23T01:57:47;4.10;;;2.15;;
28627;SDS011;15815;46.760;19.604;2024-02-23T02:00:25;3.15;;;2.05;;
28627;SDS011;15815;46.760;19.604;2024-02-23T02:02:52;3.42;;;2.33;;
28627;SDS011;15815;46.760;19.604;2024-02-23T02:05:19;6.50;;;2.53;;
28627;SDS011;15815;46.760;19.604;2024-02-23T02:07:46;2.72;;;1.73;;
28627;SDS011;15815;46.760;19.604;2024-02-23T02:10:14;3.50;;;2.28;;
28627;SDS011;15815;46.760;19.604;2024-02-23T02:12:40;4.65;;;2.40;;
28627;SDS011;15815;46.760;19.604;2024-02-23T02:15:05;3.65;;;2.28;;
28627;SDS011;15815;46.760;19.604;2024-02-23T02:17:31;4.18;;;2.95;;
28627;SDS011;15815;46.760;19.604;2024-02-23T02:19:58;4.55;;;2.58;;
28627;SDS011;15815;46.760;19.604;2024-02-23T02:22:25;3.97;;;2.70;;
28627;SDS011;15815;46.760;19.604;2024-02-23T02:24:51;3.50;;;2.25;;
28627;SDS011;15815;46.760;19.604;2024-02-23T02:27:16;3.35;;;2.28;;
28627;SDS011;15815;46.760;19.604;2024-02-23T02:29:42;6.53;;;2.90;;
28627;SDS011;15815;46.760;19.604;2024-02-23T02:32:16;5.50;;;2.55;;
28627;SDS011;15815;46.760;19.604;2024-02-23T02:34:42;5.18;;;2.33;;
28627;SDS011;15815;46.760;19.604;2024-02-23T02:37:08;3.50;;;2.53;;
28627;SDS011;15815;46.760;19.604;2024-02-23T02:39:34;3.72;;;2.17;;
28627;SDS011;15815;46.760;19.604;2024-02-23T02:41:59;5.18;;;2.38;;
28627;SDS011;15815;46.760;19.604;2024-02-23T02:44:25;6.10;;;3.10;;
28627;SDS011;15815;46.760;19.604;2024-02-23T02:46:54;4.78;;;2.15;;
28627;SDS011;15815;46.760;19.604;2024-02-23T02:49:23;2.95;;;2.50;;
28627;SDS011;15815;46.760;19.604;2024-02-23T02:51:49;4.47;;;2.30;;
28627;SDS011;15815;46.760;19.604;2024-02-23T02:54:15;3.28;;;1.98;;
28627;SDS011;15815;46.760;19.604;2024-02-23T02:56:53;5.95;;;2.60;;
28627;SDS011;15815;46.760;19.604;2024-02-23T02:59:18;7.13;;;2.25;;
28627;SDS011;15815;46.760;19.604;2024-02-23T03:01:44;3.80;;;2.20;;
28627;SDS011;15815;46.760;19.604;2024-02-23T03:04:10;4.53;;;2.33;;
28627;SDS011;15815;46.760;19.604;2024-02-23T03:06:35;3.28;;;2.20;;
28627;SDS011;15815;46.760;19.604;2024-02-23T03:09:01;3.25;;;2.30;;
28627;SDS011;15815;46.760;19.604;2024-02-23T03:11:26;3.45;;;2.75;;
28627;SDS011;15815;46.760;19.604;2024-02-23T03:13:52;3.97;;;2.50;;
28627;SDS011;15815;46.760;19.604;2024-02-23T03:16:18;4.63;;;2.65;;
28627;SDS011;15815;46.760;19.604;2024-02-23T03:18:45;3.63;;;2.55;;
28627;SDS011;15815;46.760;19.604;2024-02-23T03:21:11;4.70;;;2.25;;
28627;SDS011;15815;46.760;19.604;2024-02-23T03:23:36;3.15;;;2.25;;
28627;SDS011;15815;46.760;19.604;2024-02-23T03:26:02;4.60;;;3.00;;
28627;SDS011;15815;46.760;19.604;2024-02-23T03:28:28;4.07;;;2.38;;
28627;SDS011;15815;46.760;19.604;2024-02-23T03:33:57;4.28;;;2.58;;
28627;SDS011;15815;46.760;19.604;2024-02-23T03:36:22;4.60;;;2.40;;
28627;SDS011;15815;46.760;19.604;2024-02-23T03:38:53;6.45;;;2.90;;
28627;SDS011;15815;46.760;19.604;2024-02-23T03:41:19;8.30;;;4.13;;
28627;SDS011;15815;46.760;19.604;2024-02-23T03:43:44;3.58;;;2.58;;
28627;SDS011;15815;46.760;19.604;2024-02-23T03:46:10;10.75;;;5.10;;
28627;SDS011;15815;46.760;19.604;2024-02-23T03:48:35;6.05;;;3.28;;
28627;SDS011;15815;46.760;19.604;2024-02-23T03:51:12;5.30;;;2.95;;
28627;SDS011;15815;46.760;19.604;2024-02-23T03:53:38;6.43;;;3.25;;
28627;SDS011;15815;46.760;19.604;2024-02-23T03:56:03;6.85;;;3.45;;
28627;SDS011;15815;46.760;19.604;2024-02-23T03:58:29;4.00;;;2.60;;
28627;SDS011;15815;46.760;19.604;2024-02-23T04:00:54;4.65;;;2.80;;
28627;SDS011;15815;46.760;19.604;2024-02-23T04:03:20;4.20;;;2.97;;
28627;SDS011;15815;46.760;19.604;2024-02-23T04:05:45;3.88;;;2.65;;
28627;SDS011;15815;46.760;19.604;2024-02-23T04:08:11;5.35;;;2.92;;
28627;SDS011;15815;46.760;19.604;2024-02-23T04:10:46;6.88;;;3.42;;
28627;SDS011;15815;46.760;19.604;2024-02-23T04:13:12;5.20;;;3.08;;
28627;SDS011;15815;46.760;19.604;2024-02-23T04:15:37;5.55;;;3.10;;
28627;SDS011;15815;46.760;19.604;2024-02-23T04:18:16;2.75;;;2.38;;
28627;SDS011;15815;46.760;19.604;2024-02-23T04:20:41;4.32;;;2.65;;
28627;SDS011;15815;46.760;19.604;2024-02-23T04:23:07;4.40;;;2.97;;
28627;SDS011;15815;46.760;19.604;2024-02-23T04:25:38;4.07;;;2.85;;
28627;SDS011;15815;46.760;19.604;2024-02-23T04:28:03;6.75;;;2.83;;
28627;SDS011;15815;46.760;19.604;2024-02-23T04:33:01;7.63;;;3.05;;
28627;SDS011;15815;46.760;19.604;2024-02-23T04:35:27;4.68;;;3.42;;
28627;SDS011;15815;46.760;19.604;2024-02-23T04:37:52;6.65;;;3.53;;
28627;SDS011;15815;46.760;19.604;2024-02-23T04:40:18;6.72;;;3.33;;
28627;SDS011;15815;46.760;19.604;2024-02-23T04:42:44;5.50;;;2.80;;
28627;SDS011;15815;46.760;19.604;2024-02-23T04:47:39;7.97;;;3.67;;
28627;SDS011;15815;46.760;19.604;2024-02-23T04:50:04;4.47;;;2.50;;
28627;SDS011;15815;46.760;19.604;2024-02-23T04:52:32;6.40;;;4.10;;
28627;SDS011;15815;46.760;19.604;2024-02-23T04:54:57;5.10;;;3.20;;
28627;SDS011;15815;46.760;19.604;2024-02-23T04:57:23;8.32;;;2.90;;
28627;SDS011;15815;46.760;19.604;2024-02-23T04:59:49;3.42;;;2.72;;
28627;SDS011;15815;46.760;19.604;2024-02-23T05:02:15;4.95;;;2.75;;
28627;SDS011;15815;46.760;19.604;2024-02-23T05:04:40;6.18;;;3.17;;
28627;SDS011;15815;46.760;19.604;2024-02-23T05:09:34;4.88;;;3.42;;
28627;SDS011;15815;46.760;19.604;2024-02-23T05:12:00;4.47;;;2.90;;
28627;SDS011;15815;46.760;19.604;2024-02-23T05:14:26;5.50;;;2.85;;
28627;SDS011;15815;46.760;19.604;2024-02-23T05:16:52;4.35;;;3.00;;
28627;SDS011;15815;46.760;19.604;2024-02-23T05:19:17;4.45;;;2.80;;
28627;SDS011;15815;46.760;19.604;2024-02-23T05:21:43;6.10;;;3.75;;
28627;SDS011;15815;46.760;19.604;2024-02-23T05:24:08;5.38;;;3.55;;
28627;SDS011;15815;46.760;19.604;2024-02-23T05:26:37;5.80;;;3.35;;
28627;SDS011;15815;46.760;19.604;2024-02-23T05:29:02;7.90;;;3.67;;
28627;SDS011;15815;46.760;19.604;2024-02-23T05:32:11;4.65;;;3.33;;
28627;SDS011;15815;46.760;19.604;2024-02-23T05:34:18;6.03;;;3.70;;
28627;SDS011;15815;46.760;19.604;2024-02-23T05:36:44;8.25;;;4.47;;
28627;SDS011;15815;46.760;19.604;2024-02-23T05:39:10;5.72;;;4.47;;
28627;SDS011;15815;46.760;19.604;2024-02-23T05:41:36;8.05;;;5.03;;
28627;SDS011;15815;46.760;19.604;2024-02-23T05:44:03;10.10;;;5.13;;
28627;SDS011;15815;46.760;19.604;2024-02-23T05:46:32;9.07;;;4.28;;
28627;SDS011;15815;46.760;19.604;2024-02-23T05:49:01;6.43;;;3.92;;
28627;SDS011;15815;46.760;19.604;2024-02-23T05:51:28;5.93;;;3.55;;
28627;SDS011;15815;46.760;19.604;2024-02-23T05:53:54;6.85;;;3.85;;
28627;SDS011;15815;46.760;19.604;2024-02-23T05:56:20;6.32;;;4.30;;
28627;SDS011;15815;46.760;19.604;2024-02-23T05:58:57;7.85;;;4.70;;
28627;SDS011;15815;46.760;19.604;2024-02-23T06:01:22;8.98;;;5.70;;
28627;SDS011;15815;46.760;19.604;2024-02-23T06:03:50;9.80;;;5.63;;
28627;SDS011;15815;46.760;19.604;2024-02-23T06:06:15;9.57;;;5.32;;
28627;SDS011;15815;46.760;19.604;2024-02-23T06:08:42;7.72;;;4.97;;
28627;SDS011;15815;46.760;19.604;2024-02-23T06:11:09;6.00;;;4.97;;
28627;SDS011;15815;46.760;19.604;2024-02-23T06:13:37;7.97;;;4.80;;
28627;SDS011;15815;46.760;19.604;2024-02-23T06:16:10;8.20;;;4.85;;
28627;SDS011;15815;46.760;19.604;2024-02-23T06:18:36;6.55;;;3.95;;
28627;SDS011;15815;46.760;19.604;2024-02-23T06:21:10;9.55;;;4.53;;
28627;SDS011;15815;46.760;19.604;2024-02-23T06:23:39;5.68;;;4.00;;
28627;SDS011;15815;46.760;19.604;2024-02-23T06:26:05;5.35;;;4.03;;
28627;SDS011;15815;46.760;19.604;2024-02-23T06:28:30;5.70;;;4.22;;
28627;SDS011;15815;46.760;19.604;2024-02-23T06:30:56;7.10;;;4.30;;
28627;SDS011;15815;46.760;19.604;2024-02-23T06:33:27;6.85;;;4.55;;
28627;SDS011;15815;46.760;19.604;2024-02-23T06:35:52;6.25;;;4.32;;
28627;SDS011;15815;46.760;19.604;2024-02-23T06:41:03;5.25;;;3.83;;
28627;SDS011;15815;46.760;19.604;2024-02-23T06:43:28;8.90;;;5.03;;
28627;SDS011;15815;46.760;19.604;2024-02-23T06:45:54;9.95;;;4.93;;
28627;SDS011;15815;46.760;19.604;2024-02-23T06:48:19;6.07;;;4.47;;
28627;SDS011;15815;46.760;19.604;2024-02-23T06:50:45;11.13;;;5.30;;
28627;SDS011;15815;46.760;19.604;2024-02-23T06:53:10;13.48;;;7.55;;
28627;SDS011;15815;46.760;19.604;2024-02-23T06:55:38;17.05;;;10.30;;
28627;SDS011;15815;46.760;19.604;2024-02-23T06:58:04;12.27;;;7.47;;
28627;SDS011;15815;46.760;19.604;2024-02-23T07:00:29;12.02;;;7.40;;
28627;SDS011;15815;46.760;19.604;2024-02-23T07:02:56;9.80;;;6.22;;
28627;SDS011;15815;46.760;19.604;2024-02-23T07:05:21;14.05;;;6.93;;
28627;SDS011;15815;46.760;19.604;2024-02-23T07:07:47;10.77;;;5.05;;
28627;SDS011;15815;46.760;19.604;2024-02-23T07:10:15;9.88;;;4.90;;
28627;SDS011;15815;46.760;19.604;2024-02-23T07:12:41;8.00;;;4.60;;
28627;SDS011;15815;46.760;19.604;2024-02-23T07:15:06;7.65;;;4.40;;
28627;SDS011;15815;46.760;19.604;2024-02-23T07:17:36;6.35;;;4.15;;
28627;SDS011;15815;46.760;19.604;2024-02-23T07:20:02;7.35;;;4.47;;
28627;SDS011;15815;46.760;19.604;2024-02-23T07:22:27;7.00;;;4.28;;
28627;SDS011;15815;46.760;19.604;2024-02-23T07:24:53;10.10;;;5.28;;
28627;SDS011;15815;46.760;19.604;2024-02-23T07:27:18;8.98;;;4.97;;
28627;SDS011;15815;46.760;19.604;2024-02-23T07:29:44;8.90;;;5.72;;
28627;SDS011;15815;46.760;19.604;2024-02-23T07:32:13;9.45;;;5.95;;
28627;SDS011;15815;46.760;19.604;2024-02-23T07:34:39;11.40;;;7.00;;
28627;SDS011;15815;46.760;19.604;2024-02-23T07:37:05;9.40;;;6.57;;
28627;SDS011;15815;46.760;19.604;2024-02-23T07:39:31;10.60;;;5.85;;
28627;SDS011;15815;46.760;19.604;2024-02-23T07:41:56;11.52;;;6.63;;
28627;SDS011;15815;46.760;19.604;2024-02-23T07:44:22;8.65;;;6.10;;
28627;SDS011;15815;46.760;19.604;2024-02-23T07:46:47;9.73;;;6.47;;
28627;SDS011;15815;46.760;19.604;2024-02-23T07:49:13;7.15;;;4.82;;
28627;SDS011;15815;46.760;19.604;2024-02-23T07:51:38;7.13;;;4.75;;
28627;SDS011;15815;46.760;19.604;2024-02-23T07:54:04;7.80;;;4.80;;
28627;SDS011;15815;46.760;19.604;2024-02-23T07:59:03;7.70;;;5.57;;
28627;SDS011;15815;46.760;19.604;2024-02-23T08:01:28;9.00;;;5.35;;
28627;SDS011;15815;46.760;19.604;2024-02-23T08:03:54;6.90;;;4.72;;
28627;SDS011;15815;46.760;19.604;2024-02-23T08:06:22;9.02;;;4.90;;
28627;SDS011;15815;46.760;19.604;2024-02-23T08:08:48;8.18;;;5.00;;
28627;SDS011;15815;46.760;19.604;2024-02-23T08:11:14;8.80;;;5.15;;
28627;SDS011;15815;46.760;19.604;2024-02-23T08:13:39;8.10;;;5.13;;
28627;SDS011;15815;46.760;19.604;2024-02-23T08:16:05;9.32;;;5.03;;
28627;SDS011;15815;46.760;19.604;2024-02-23T08:18:31;10.15;;;5.45;;
28627;SDS011;15815;46.760;19.604;2024-02-23T08:20:57;8.18;;;4.55;;
28627;SDS011;15815;46.760;19.604;2024-02-23T08:23:24;9.20;;;5.10;;
28627;SDS011;15815;46.760;19.604;2024-02-23T08:25:49;9.38;;;5.07;;
28627;SDS011;15815;46.760;19.604;2024-02-23T08:31:02;14.30;;;5.50;;
28627;SDS011;15815;46.760;19.604;2024-02-23T08:33:28;9.73;;;5.40;;
28627;SDS011;15815;46.760;19.604;2024-02-23T08:35:55;10.77;;;5.97;;
28627;SDS011;15815;46.760;19.604;2024-02-23T08:38:20;8.35;;;5.45;;
28627;SDS011;15815;46.760;19.604;2024-02-23T08:40:46;9.50;;;6.00;;
28627;SDS011;15815;46.760;19.604;2024-02-23T08:43:11;14.27;;;6.15;;
28627;SDS011;15815;46.760;19.604;2024-02-23T08:45:37;11.07;;;5.53;;
28627;SDS011;15815;46.760;19.604;2024-02-23T08:48:02;7.55;;;5.00;;
28627;SDS011;15815;46.760;19.604;2024-02-23T08:50:28;8.13;;;4.60;;
28627;SDS011;15815;46.760;19.604;2024-02-23T08:52:54;6.30;;;4.60;;
28627;SDS011;15815;46.760;19.604;2024-02-23T08:55:20;9.40;;;5.20;;
28627;SDS011;15815;46.760;19.604;2024-02-23T08:57:46;9.45;;;5.63;;
28627;SDS011;15815;46.760;19.604;2024-02-23T09:00:11;8.85;;;4.90;;
28627;SDS011;15815;46.760;19.604;2024-02-23T09:02:49;12.05;;;5.32;;
28627;SDS011;15815;46.760;19.604;2024-02-23T09:05:14;9.13;;;5.30;;
28627;SDS011;15815;46.760;19.604;2024-02-23T09:07:40;6.32;;;4.05;;
28627;SDS011;15815;46.760;19.604;2024-02-23T09:12:50;19.48;;;8.48;;
28627;SDS011;15815;46.760;19.604;2024-02-23T09:15:34;10.07;;;6.10;;
28627;SDS011;15815;46.760;19.604;2024-02-23T09:18:00;10.18;;;5.15;;
28627;SDS011;15815;46.760;19.604;2024-02-23T09:20:25;9.43;;;5.05;;
28627;SDS011;15815;46.760;19.604;2024-02-23T09:22:51;7.18;;;4.85;;
28627;SDS011;15815;46.760;19.604;2024-02-23T09:25:18;8.70;;;4.47;;
28627;SDS011;15815;46.760;19.604;2024-02-23T09:27:43;9.85;;;5.25;;
28627;SDS011;15815;46.760;19.604;2024-02-23T09:30:10;7.45;;;4.72;;
28627;SDS011;15815;46.760;19.604;2024-02-23T09:32:40;7.43;;;4.80;;
28627;SDS011;15815;46.760;19.604;2024-02-23T09:35:06;8.15;;;4.43;;
28627;SDS011;15815;46.760;19.604;2024-02-23T09:37:34;8.52;;;4.28;;
28627;SDS011;15815;46.760;19.604;2024-02-23T09:39:59;5.38;;;4.50;;
28627;SDS011;15815;46.760;19.604;2024-02-23T09:42:25;10.40;;;5.63;;
28627;SDS011;15815;46.760;19.604;2024-02-23T09:44:57;8.20;;;4.47;;
28627;SDS011;15815;46.760;19.604;2024-02-23T09:47:24;8.00;;;4.43;;
28627;SDS011;15815;46.760;19.604;2024-02-23T09:49:52;9.90;;;5.25;;
28627;SDS011;15815;46.760;19.604;2024-02-23T09:52:23;6.68;;;4.18;;
28627;SDS011;15815;46.760;19.604;2024-02-23T09:54:49;6.93;;;4.30;;
28627;SDS011;15815;46.760;19.604;2024-02-23T09:57:15;8.30;;;4.38;;
28627;SDS011;15815;46.760;19.604;2024-02-23T09:59:41;6.25;;;3.97;;
28627;SDS011;15815;46.760;19.604;2024-02-23T10:02:07;6.65;;;3.92;;
28627;SDS011;15815;46.760;19.604;2024-02-23T10:04:41;5.85;;;4.60;;
28627;SDS011;15815;46.760;19.604;2024-02-23T10:07:09;5.82;;;4.05;;
28627;SDS011;15815;46.760;19.604;2024-02-23T10:09:35;7.10;;;4.00;;
28627;SDS011;15815;46.760;19.604;2024-02-23T10:12:01;6.53;;;3.83;;
28627;SDS011;15815;46.760;19.604;2024-02-23T10:14:31;6.45;;;4.30;;
28627;SDS011;15815;46.760;19.604;2024-02-23T10:16:56;5.97;;;4.05;;
28627;SDS011;15815;46.760;19.604;2024-02-23T10:19:22;5.63;;;3.88;;
28627;SDS011;15815;46.760;19.604;2024-02-23T10:21:56;8.70;;;5.28;;
28627;SDS011;15815;46.760;19.604;2024-02-23T10:24:22;7.55;;;4.82;;
28627;SDS011;15815;46.760;19.604;2024-02-23T10:26:48;7.47;;;4.53;;
28627;SDS011;15815;46.760;19.604;2024-02-23T10:29:15;5.15;;;3.95;;
28627;SDS011;15815;46.760;19.604;2024-02-23T10:31:40;9.60;;;4.43;;
28627;SDS011;15815;46.760;19.604;2024-02-23T10:34:09;6.65;;;4.00;;
28627;SDS011;15815;46.760;19.604;2024-02-23T10:39:10;8.43;;;5.13;;
28627;SDS011;15815;46.760;19.604;2024-02-23T10:41:37;7.88;;;4.30;;
28627;SDS011;15815;46.760;19.604;2024-02-23T10:44:05;7.07;;;4.25;;
28627;SDS011;15815;46.760;19.604;2024-02-23T10:46:33;6.03;;;3.67;;
28627;SDS011;15815;46.760;19.604;2024-02-23T10:54:21;7.80;;;3.90;;
28627;SDS011;15815;46.760;19.604;2024-02-23T10:56:48;7.18;;;4.13;;
28627;SDS011;15815;46.760;19.604;2024-02-23T10:59:16;7.63;;;4.22;;
28627;SDS011;15815;46.760;19.604;2024-02-23T11:01:48;9.18;;;4.47;;
28627;SDS011;15815;46.760;19.604;2024-02-23T11:04:18;9.18;;;3.95;;
28627;SDS011;15815;46.760;19.604;2024-02-23T11:09:38;7.03;;;4.45;;
28627;SDS011;15815;46.760;19.604;2024-02-23T11:12:04;6.60;;;4.82;;
28627;SDS011;15815;46.760;19.604;2024-02-23T11:14:34;8.07;;;4.53;;
28627;SDS011;15815;46.760;19.604;2024-02-23T11:17:01;8.57;;;4.78;;
28627;SDS011;15815;46.760;19.604;2024-02-23T11:24:59;7.47;;;5.13;;
28627;SDS011;15815;46.760;19.604;2024-02-23T11:27:33;10.32;;;4.97;;
28627;SDS011;15815;46.760;19.604;2024-02-23T11:30:03;12.32;;;5.93;;
28627;SDS011;15815;46.760;19.604;2024-02-23T11:32:37;12.77;;;6.50;;
28627;SDS011;15815;46.760;19.604;2024-02-23T11:35:05;9.05;;;5.40;;
28627;SDS011;15815;46.760;19.604;2024-02-23T11:37:31;10.70;;;4.88;;
28627;SDS011;15815;46.760;19.604;2024-02-23T11:40:04;13.00;;;7.05;;
28627;SDS011;15815;46.760;19.604;2024-02-23T11:42:30;10.82;;;5.80;;
28627;SDS011;15815;46.760;19.604;2024-02-23T11:44:56;10.70;;;5.28;;
28627;SDS011;15815;46.760;19.604;2024-02-23T11:47:23;12.15;;;6.53;;
28627;SDS011;15815;46.760;19.604;2024-02-23T11:49:48;9.68;;;6.03;;
28627;SDS011;15815;46.760;19.604;2024-02-23T11:52:14;10.27;;;6.00;;
28627;SDS011;15815;46.760;19.604;2024-02-23T11:54:39;7.15;;;5.15;;
28627;SDS011;15815;46.760;19.604;2024-02-23T11:57:05;12.50;;;6.63;;
28627;SDS011;15815;46.760;19.604;2024-02-23T11:59:32;17.92;;;8.93;;
28627;SDS011;15815;46.760;19.604;2024-02-23T12:01:57;14.70;;;9.27;;
28627;SDS011;15815;46.760;19.604;2024-02-23T12:04:23;9.75;;;5.93;;
28627;SDS011;15815;46.760;19.604;2024-02-23T12:06:48;11.80;;;6.07;;
28627;SDS011;15815;46.760;19.604;2024-02-23T12:09:14;8.85;;;5.50;;
28627;SDS011;15815;46.760;19.604;2024-02-23T12:11:40;13.32;;;5.90;;
28627;SDS011;15815;46.760;19.604;2024-02-23T12:14:06;11.13;;;6.68;;
28627;SDS011;15815;46.760;19.604;2024-02-23T12:16:47;9.48;;;5.93;;
28627;SDS011;15815;46.760;19.604;2024-02-23T12:19:12;12.25;;;6.68;;
28627;SDS011;15815;46.760;19.604;2024-02-23T12:21:38;11.73;;;6.45;;
28627;SDS011;15815;46.760;19.604;2024-02-23T12:24:04;12.70;;;7.57;;
28627;SDS011;15815;46.760;19.604;2024-02-23T12:26:30;12.43;;;7.43;;
28627;SDS011;15815;46.760;19.604;2024-02-23T12:29:00;10.60;;;6.22;;
28627;SDS011;15815;46.760;19.604;2024-02-23T12:31:41;10.25;;;6.50;;
28627;SDS011;15815;46.760;19.604;2024-02-23T12:34:07;9.52;;;6.05;;
28627;SDS011;15815;46.760;19.604;2024-02-23T12:36:39;15.70;;;7.10;;
28627;SDS011;15815;46.760;19.604;2024-02-23T12:39:04;14.30;;;7.88;;
28627;SDS011;15815;46.760;19.604;2024-02-23T12:41:38;11.60;;;6.72;;
28627;SDS011;15815;46.760;19.604;2024-02-23T12:44:04;12.70;;;7.00;;
28627;SDS011;15815;46.760;19.604;2024-02-23T12:46:40;16.27;;;7.35;;
28627;SDS011;15815;46.760;19.604;2024-02-23T12:49:06;18.30;;;8.45;;
28627;SDS011;15815;46.760;19.604;2024-02-23T12:51:31;16.85;;;6.97;;
28627;SDS011;15815;46.760;19.604;2024-02-23T12:53:57;10.57;;;6.68;;
28627;SDS011;15815;46.760;19.604;2024-02-23T12:56:22;19.98;;;9.07;;
28627;SDS011;15815;46.760;19.604;2024-02-23T12:58:51;13.65;;;7.75;;
28627;SDS011;15815;46.760;19.604;2024-02-23T13:01:17;14.65;;;8.40;;
28627;SDS011;15815;46.760;19.604;2024-02-23T13:03:42;12.90;;;6.47;;
28627;SDS011;15815;46.760;19.604;2024-02-23T13:06:08;14.02;;;7.22;;
28627;SDS011;15815;46.760;19.604;2024-02-23T13:08:33;11.50;;;7.15;;
28627;SDS011;15815;46.760;19.604;2024-02-23T13:10:59;15.27;;;7.80;;
28627;SDS011;15815;46.760;19.604;2024-02-23T13:13:25;18.42;;;10.32;;
28627;SDS011;15815;46.760;19.604;2024-02-23T13:16:01;17.83;;;10.07;;
28627;SDS011;15815;46.760;19.604;2024-02-23T13:18:27;23.38;;;11.27;;
28627;SDS011;15815;46.760;19.604;2024-02-23T13:20:53;24.30;;;11.23;;
28627;SDS011;15815;46.760;19.604;2024-02-23T13:23:30;29.88;;;12.50;;
28627;SDS011;15815;46.760;19.604;2024-02-23T13:25:55;22.42;;;11.77;;
28627;SDS011;15815;46.760;19.604;2024-02-23T13:28:21;18.73;;;9.88;;
28627;SDS011;15815;46.760;19.604;2024-02-23T13:30:46;14.07;;;8.57;;
28627;SDS011;15815;46.760;19.604;2024-02-23T13:33:12;10.55;;;7.45;;
28627;SDS011;15815;46.760;19.604;2024-02-23T13:35:37;13.52;;;8.00;;
28627;SDS011;15815;46.760;19.604;2024-02-23T13:38:03;16.80;;;7.68;;
28627;SDS011;15815;46.760;19.604;2024-02-23T13:40:29;13.77;;;7.80;;
28627;SDS011;15815;46.760;19.604;2024-02-23T13:42:55;15.73;;;6.95;;
28627;SDS011;15815;46.760;19.604;2024-02-23T13:48:25;19.75;;;8.95;;
28627;SDS011;15815;46.760;19.604;2024-02-23T13:50:51;16.38;;;8.40;;
28627;SDS011;15815;46.760;19.604;2024-02-23T13:53:28;17.20;;;7.93;;
28627;SDS011;15815;46.760;19.604;2024-02-23T13:55:54;11.35;;;6.85;;
28627;SDS011;15815;46.760;19.604;2024-02-23T13:58:20;11.20;;;6.50;;
28627;SDS011;15815;46.760;19.604;2024-02-23T14:00:45;9.90;;;6.18;;
28627;SDS011;15815;46.760;19.604;2024-02-23T14:03:18;11.52;;;6.30;;
28627;SDS011;15815;46.760;19.604;2024-02-23T14:05:44;11.15;;;6.38;;
28627;SDS011;15815;46.760;19.604;2024-02-23T14:08:10;8.77;;;6.15;;
28627;SDS011;15815;46.760;19.604;2024-02-23T14:10:36;13.43;;;6.78;;
28627;SDS011;15815;46.760;19.604;2024-02-23T14:13:01;12.70;;;7.68;;
28627;SDS011;15815;46.760;19.604;2024-02-23T14:15:27;15.65;;;8.63;;
28627;SDS011;15815;46.760;19.604;2024-02-23T14:18:00;15.50;;;8.60;;
28627;SDS011;15815;46.760;19.604;2024-02-23T14:20:26;16.83;;;8.57;;
28627;SDS011;15815;46.760;19.604;2024-02-23T14:22:51;15.15;;;7.65;;
28627;SDS011;15815;46.760;19.604;2024-02-23T14:25:18;11.13;;;5.95;;
28627;SDS011;15815;46.760;19.604;2024-02-23T14:27:43;13.75;;;6.18;;
28627;SDS011;15815;46.760;19.604;2024-02-23T14:30:09;9.93;;;5.43;;
28627;SDS011;15815;46.760;19.604;2024-02-23T14:32:47;20.00;;;6.68;;
28627;SDS011;15815;46.760;19.604;2024-02-23T14:35:13;9.98;;;6.40;;
28627;SDS011;15815;46.760;19.604;2024-02-23T14:37:39;12.95;;;6.30;;
28627;SDS011;15815;46.760;19.604;2024-02-23T14:42:59;11.55;;;6.82;;
28627;SDS011;15815;46.760;19.604;2024-02-23T14:45:24;14.23;;;6.57;;
28627;SDS011;15815;46.760;19.604;2024-02-23T14:48:08;19.75;;;8.35;;
28627;SDS011;15815;46.760;19.604;2024-02-23T14:50:33;12.10;;;7.18;;
28627;SDS011;15815;46.760;19.604;2024-02-23T14:52:59;11.95;;;7.13;;
28627;SDS011;15815;46.760;19.604;2024-02-23T14:55:26;16.70;;;9.40;;
28627;SDS011;15815;46.760;19.604;2024-02-23T14:57:51;31.92;;;16.15;;
28627;SDS011;15815;46.760;19.604;2024-02-23T15:00:17;25.70;;;14.68;;
28627;SDS011;15815;46.760;19.604;2024-02-23T15:05:32;17.27;;;11.70;;
28627;SDS011;15815;46.760;19.604;2024-02-23T15:07:57;18.58;;;10.07;;
28627;SDS011;15815;46.760;19.604;2024-02-23T15:10:23;14.23;;;9.18;;
28627;SDS011;15815;46.760;19.604;2024-02-23T15:12:48;18.25;;;8.88;;
28627;SDS011;15815;46.760;19.604;2024-02-23T15:15:14;13.65;;;8.40;;
28627;SDS011;15815;46.760;19.604;2024-02-23T15:17:39;14.27;;;7.65;;
28627;SDS011;15815;46.760;19.604;2024-02-23T15:20:05;13.07;;;7.22;;
28627;SDS011;15815;46.760;19.604;2024-02-23T15:22:34;12.75;;;6.90;;
28627;SDS011;15815;46.760;19.604;2024-02-23T15:25:04;16.17;;;6.90;;
28627;SDS011;15815;46.760;19.604;2024-02-23T15:27:31;10.63;;;7.05;;